sensor_id;sensor_type;location;lat;lon;timestamp;pressure;altitude;pressure_sealevel;temperature;humidity
74659;BME280;63186;51.204;6.536;2023-02-28T00:00:08;102558.59;;;-1.79;83.55
74659;BME280;63186;51.204;6.536;2023-02-28T00:02:36;102557.19;;;-1.90;83.73
74659;BME280;63186;51.204;6.536;2023-02-28T00:05:01;102554.31;;;-1.88;84.30
74659;BME280;63186;51.204;6.536;2023-02-28T00:07:29;102553.63;;;-1.91;84.12
74659;BME280;63186;51.204;6.536;2023-02-28T00:09:54;102552.63;;;-1.89;84.62
74659;BME280;63186;51.204;6.536;2023-02-28T00:12:19;102547.31;;;-1.98;84.00
74659;BME280;63186;51.204;6.536;2023-02-28T00:14:45;102555.84;;;-2.09;84.46
74659;BME280;63186;51.204;6.536;2023-02-28T00:17:10;102550.63;;;-2.10;85.44
74659;BME280;63186;51.204;6.536;2023-02-28T00:19:35;102545.91;;;-2.08;84.84
74659;BME280;63186;51.204;6.536;2023-02-28T00:22:01;102548.50;;;-2.15;85.30
74659;BME280;63186;51.204;6.536;2023-02-28T00:24:26;102554.91;;;-2.16;85.14
74659;BME280;63186;51.204;6.536;2023-02-28T00:26:51;102559.53;;;-2.25;85.77
74659;BME280;63186;51.204;6.536;2023-02-28T00:29:16;102558.41;;;-2.30;86.10
74659;BME280;63186;51.204;6.536;2023-02-28T00:31:42;102558.22;;;-2.29;86.20
74659;BME280;63186;51.204;6.536;2023-02-28T00:34:07;102561.22;;;-2.24;85.98
74659;BME280;63186;51.204;6.536;2023-02-28T00:36:32;102552.38;;;-2.17;86.76
74659;BME280;63186;51.204;6.536;2023-02-28T00:38:57;102553.81;;;-2.07;85.52
74659;BME280;63186;51.204;6.536;2023-02-28T00:41:23;102556.31;;;-2.05;85.45
74659;BME280;63186;51.204;6.536;2023-02-28T00:43:48;102562.09;;;-2.08;85.38
74659;BME280;63186;51.204;6.536;2023-02-28T00:46:13;102550.34;;;-2.15;85.80
74659;BME280;63186;51.204;6.536;2023-02-28T00:48:38;102550.19;;;-2.14;85.72
74659;BME280;63186;51.204;6.536;2023-02-28T00:51:04;102554.34;;;-2.11;85.91
74659;BME280;63186;51.204;6.536;2023-02-28T00:53:30;102559.66;;;-2.03;85.84
74659;BME280;63186;51.204;6.536;2023-02-28T00:55:55;102551.69;;;-1.97;85.91
74659;BME280;63186;51.204;6.536;2023-02-28T00:58:20;102560.56;;;-1.88;85.84
74659;BME280;63186;51.204;6.536;2023-02-28T01:00:46;102559.03;;;-1.91;85.33
74659;BME280;63186;51.204;6.536;2023-02-28T01:03:15;102562.56;;;-1.90;85.13
74659;BME280;63186;51.204;6.536;2023-02-28T01:05:41;102562.22;;;-1.87;86.15
74659;BME280;63186;51.204;6.536;2023-02-28T01:08:06;102555.78;;;-1.86;85.52
74659;BME280;63186;51.204;6.536;2023-02-28T01:10:32;102564.63;;;-1.77;84.93
74659;BME280;63186;51.204;6.536;2023-02-28T01:12:57;102551.53;;;-1.80;85.72
74659;BME280;63186;51.204;6.536;2023-02-28T01:15:23;102566.69;;;-1.79;85.53
74659;BME280;63186;51.204;6.536;2023-02-28T01:17:48;102557.28;;;-1.83;85.53
74659;BME280;63186;51.204;6.536;2023-02-28T01:20:13;102561.38;;;-1.87;85.76
74659;BME280;63186;51.204;6.536;2023-02-28T01:22:39;102561.28;;;-1.94;85.56
74659;BME280;63186;51.204;6.536;2023-02-28T01:25:04;102561.34;;;-2.02;86.06
74659;BME280;63186;51.204;6.536;2023-02-28T01:27:30;102553.44;;;-2.04;87.16
74659;BME280;63186;51.204;6.536;2023-02-28T01:29:55;102561.72;;;-2.05;86.89
74659;BME280;63186;51.204;6.536;2023-02-28T01:32:20;102551.31;;;-2.08;86.94
74659;BME280;63186;51.204;6.536;2023-02-28T01:34:46;102554.25;;;-2.18;86.59
74659;BME280;63186;51.204;6.536;2023-02-28T01:37:11;102553.72;;;-2.36;87.40
74659;BME280;63186;51.204;6.536;2023-02-28T01:39:36;102549.84;;;-2.57;88.07
74659;BME280;63186;51.204;6.536;2023-02-28T01:42:02;102549.41;;;-2.68;88.90
74659;BME280;63186;51.204;6.536;2023-02-28T01:45:00;102546.56;;;-2.67;90.03
74659;BME280;63186;51.204;6.536;2023-02-28T01:47:38;102547.31;;;-2.81;89.83
74659;BME280;63186;51.204;6.536;2023-02-28T01:50:11;102541.47;;;-2.85;90.10
74659;BME280;63186;51.204;6.536;2023-02-28T01:52:38;102548.28;;;-2.74;90.59
74659;BME280;63186;51.204;6.536;2023-02-28T01:55:05;102542.50;;;-2.86;89.47
74659;BME280;63186;51.204;6.536;2023-02-28T01:57:38;102543.00;;;-2.90;91.86
74659;BME280;63186;51.204;6.536;2023-02-28T02:00:07;102538.47;;;-2.90;90.96
74659;BME280;63186;51.204;6.536;2023-02-28T02:02:34;102539.16;;;-2.96;90.66
74659;BME280;63186;51.204;6.536;2023-02-28T02:05:06;102545.19;;;-3.17;89.92
74659;BME280;63186;51.204;6.536;2023-02-28T02:07:35;102537.50;;;-3.28;91.20
74659;BME280;63186;51.204;6.536;2023-02-28T02:18:15;102536.13;;;-2.93;91.62
74659;BME280;63186;51.204;6.536;2023-02-28T02:20:58;102532.53;;;-2.85;92.41
74659;BME280;63186;51.204;6.536;2023-02-28T02:26:31;102531.16;;;-2.81;91.57
74659;BME280;63186;51.204;6.536;2023-02-28T02:32:44;102534.16;;;-2.76;92.79
74659;BME280;63186;51.204;6.536;2023-02-28T02:38:00;102543.06;;;-2.76;93.33
74659;BME280;63186;51.204;6.536;2023-02-28T02:40:37;102535.66;;;-2.74;92.81
74659;BME280;63186;51.204;6.536;2023-02-28T02:45:34;102529.66;;;-2.84;93.49
74659;BME280;63186;51.204;6.536;2023-02-28T02:48:06;102531.53;;;-2.84;91.68
74659;BME280;63186;51.204;6.536;2023-02-28T02:50:37;102523.06;;;-2.81;93.72
74659;BME280;63186;51.204;6.536;2023-02-28T02:53:05;102533.97;;;-2.75;92.88
74659;BME280;63186;51.204;6.536;2023-02-28T02:55:35;102525.22;;;-2.77;92.27
74659;BME280;63186;51.204;6.536;2023-02-28T02:58:05;102523.25;;;-2.83;91.24
74659;BME280;63186;51.204;6.536;2023-02-28T03:00:37;102516.91;;;-2.90;91.06
74659;BME280;63186;51.204;6.536;2023-02-28T03:03:07;102518.44;;;-2.95;91.23
74659;BME280;63186;51.204;6.536;2023-02-28T03:05:41;102518.81;;;-2.98;93.42
74659;BME280;63186;51.204;6.536;2023-02-28T03:08:09;102513.94;;;-3.03;92.67
74659;BME280;63186;51.204;6.536;2023-02-28T03:10:42;102517.34;;;-3.09;92.04
74659;BME280;63186;51.204;6.536;2023-02-28T03:18:39;102517.97;;;-3.30;93.28
74659;BME280;63186;51.204;6.536;2023-02-28T03:21:16;102507.09;;;-3.37;94.66
74659;BME280;63186;51.204;6.536;2023-02-28T03:23:53;102515.19;;;-3.45;93.18
74659;BME280;63186;51.204;6.536;2023-02-28T03:26:23;102510.72;;;-3.61;93.91
74659;BME280;63186;51.204;6.536;2023-02-28T03:29:23;102510.63;;;-3.84;95.35
74659;BME280;63186;51.204;6.536;2023-02-28T03:31:59;102507.25;;;-3.86;95.08
74659;BME280;63186;51.204;6.536;2023-02-28T03:34:33;102499.03;;;-3.92;95.77
74659;BME280;63186;51.204;6.536;2023-02-28T03:37:05;102514.34;;;-3.85;95.91
74659;BME280;63186;51.204;6.536;2023-02-28T03:39:43;102509.81;;;-4.00;94.82
74659;BME280;63186;51.204;6.536;2023-02-28T03:42:14;102503.44;;;-3.99;96.49
74659;BME280;63186;51.204;6.536;2023-02-28T03:45:04;102515.34;;;-3.86;96.55
74659;BME280;63186;51.204;6.536;2023-02-28T03:47:33;102514.47;;;-3.70;96.59
74659;BME280;63186;51.204;6.536;2023-02-28T03:50:04;102513.06;;;-3.58;95.16
74659;BME280;63186;51.204;6.536;2023-02-28T03:52:34;102509.69;;;-3.51;94.86
74659;BME280;63186;51.204;6.536;2023-02-28T03:55:09;102507.31;;;-3.55;94.70
74659;BME280;63186;51.204;6.536;2023-02-28T03:57:57;102504.25;;;-3.43;95.44
74659;BME280;63186;51.204;6.536;2023-02-28T04:00:36;102516.00;;;-3.36;94.81
74659;BME280;63186;51.204;6.536;2023-02-28T04:03:03;102521.19;;;-3.35;94.20
74659;BME280;63186;51.204;6.536;2023-02-28T04:05:29;102517.72;;;-3.43;93.32
74659;BME280;63186;51.204;6.536;2023-02-28T04:08:03;102520.63;;;-3.61;93.43
74659;BME280;63186;51.204;6.536;2023-02-28T04:10:29;102521.84;;;-3.72;94.80
74659;BME280;63186;51.204;6.536;2023-02-28T04:12:54;102524.00;;;-3.59;94.87
74659;BME280;63186;51.204;6.536;2023-02-28T04:15:19;102524.31;;;-3.54;94.68
74659;BME280;63186;51.204;6.536;2023-02-28T04:17:47;102524.59;;;-3.41;94.71
74659;BME280;63186;51.204;6.536;2023-02-28T04:20:13;102531.44;;;-3.30;93.73
74659;BME280;63186;51.204;6.536;2023-02-28T04:22:38;102533.91;;;-3.20;93.06
74659;BME280;63186;51.204;6.536;2023-02-28T04:25:04;102532.03;;;-3.12;93.25
74659;BME280;63186;51.204;6.536;2023-02-28T04:27:30;102535.69;;;-3.05;91.95
74659;BME280;63186;51.204;6.536;2023-02-28T04:29:55;102529.28;;;-3.04;92.42
74659;BME280;63186;51.204;6.536;2023-02-28T04:32:21;102535.69;;;-3.05;91.69
74659;BME280;63186;51.204;6.536;2023-02-28T04:34:46;102531.16;;;-3.04;91.25
74659;BME280;63186;51.204;6.536;2023-02-28T04:37:11;102528.66;;;-3.14;90.98
74659;BME280;63186;51.204;6.536;2023-02-28T04:39:37;102531.72;;;-3.17;91.02
74659;BME280;63186;51.204;6.536;2023-02-28T04:42:03;102532.31;;;-3.07;91.36
74659;BME280;63186;51.204;6.536;2023-02-28T04:44:28;102534.19;;;-3.07;90.26
74659;BME280;63186;51.204;6.536;2023-02-28T04:46:54;102540.25;;;-3.05;90.62
74659;BME280;63186;51.204;6.536;2023-02-28T04:49:19;102537.56;;;-3.05;89.90
74659;BME280;63186;51.204;6.536;2023-02-28T04:51:44;102538.19;;;-3.03;90.65
74659;BME280;63186;51.204;6.536;2023-02-28T04:54:10;102545.25;;;-3.02;90.10
74659;BME280;63186;51.204;6.536;2023-02-28T04:56:35;102544.47;;;-3.11;89.52
74659;BME280;63186;51.204;6.536;2023-02-28T04:59:00;102543.38;;;-3.24;90.23
74659;BME280;63186;51.204;6.536;2023-02-28T05:01:30;102538.00;;;-3.33;90.58
74659;BME280;63186;51.204;6.536;2023-02-28T05:03:59;102539.22;;;-3.35;91.12
74659;BME280;63186;51.204;6.536;2023-02-28T05:06:26;102539.66;;;-3.23;90.50
74659;BME280;63186;51.204;6.536;2023-02-28T05:08:52;102544.91;;;-3.30;90.51
74659;BME280;63186;51.204;6.536;2023-02-28T05:11:24;102542.41;;;-3.32;91.40
74659;BME280;63186;51.204;6.536;2023-02-28T05:13:51;102543.00;;;-3.21;91.22
74659;BME280;63186;51.204;6.536;2023-02-28T05:16:18;102546.72;;;-3.22;90.14
74659;BME280;63186;51.204;6.536;2023-02-28T05:18:44;102540.69;;;-3.33;90.31
74659;BME280;63186;51.204;6.536;2023-02-28T05:21:36;102545.75;;;-3.30;90.88
74659;BME280;63186;51.204;6.536;2023-02-28T05:24:05;102552.50;;;-3.34;90.72
74659;BME280;63186;51.204;6.536;2023-02-28T05:26:34;102541.44;;;-3.39;90.59
74659;BME280;63186;51.204;6.536;2023-02-28T05:29:00;102547.00;;;-3.48;89.97
74659;BME280;63186;51.204;6.536;2023-02-28T05:31:25;102539.47;;;-3.61;91.37
74659;BME280;63186;51.204;6.536;2023-02-28T05:33:50;102548.56;;;-3.62;91.59
74659;BME280;63186;51.204;6.536;2023-02-28T05:36:16;102545.56;;;-3.67;92.06
74659;BME280;63186;51.204;6.536;2023-02-28T05:38:42;102551.09;;;-3.61;91.92
74659;BME280;63186;51.204;6.536;2023-02-28T05:41:08;102551.09;;;-3.61;92.23
74659;BME280;63186;51.204;6.536;2023-02-28T05:43:34;102555.59;;;-3.53;92.73
74659;BME280;63186;51.204;6.536;2023-02-28T05:46:02;102558.47;;;-3.55;91.73
74659;BME280;63186;51.204;6.536;2023-02-28T05:48:27;102560.00;;;-3.60;92.35
74659;BME280;63186;51.204;6.536;2023-02-28T05:50:52;102556.28;;;-3.59;91.80
74659;BME280;63186;51.204;6.536;2023-02-28T05:53:18;102561.53;;;-3.58;91.68
74659;BME280;63186;51.204;6.536;2023-02-28T05:55:43;102556.31;;;-3.67;91.88
74659;BME280;63186;51.204;6.536;2023-02-28T05:58:08;102557.34;;;-3.68;92.36
74659;BME280;63186;51.204;6.536;2023-02-28T06:00:33;102562.22;;;-3.72;91.41
74659;BME280;63186;51.204;6.536;2023-02-28T06:02:59;102558.22;;;-3.76;92.01
74659;BME280;63186;51.204;6.536;2023-02-28T06:05:26;102559.22;;;-3.77;91.73
74659;BME280;63186;51.204;6.536;2023-02-28T06:07:52;102552.16;;;-3.78;91.69
74659;BME280;63186;51.204;6.536;2023-02-28T06:10:17;102562.56;;;-3.75;92.20
74659;BME280;63186;51.204;6.536;2023-02-28T06:12:42;102566.94;;;-3.74;91.62
74659;BME280;63186;51.204;6.536;2023-02-28T06:15:17;102561.22;;;-3.71;92.43
74659;BME280;63186;51.204;6.536;2023-02-28T06:17:43;102578.19;;;-3.62;91.42
74659;BME280;63186;51.204;6.536;2023-02-28T06:20:10;102579.69;;;-3.51;91.52
74659;BME280;63186;51.204;6.536;2023-02-28T06:22:38;102576.81;;;-3.50;90.88
74659;BME280;63186;51.204;6.536;2023-02-28T06:25:04;102585.22;;;-3.53;90.98
74659;BME280;63186;51.204;6.536;2023-02-28T06:27:31;102579.16;;;-3.55;90.72
74659;BME280;63186;51.204;6.536;2023-02-28T06:29:57;102582.03;;;-3.57;91.31
74659;BME280;63186;51.204;6.536;2023-02-28T06:32:22;102584.03;;;-3.50;90.56
74659;BME280;63186;51.204;6.536;2023-02-28T06:34:47;102590.44;;;-3.51;90.12
74659;BME280;63186;51.204;6.536;2023-02-28T06:37:13;102589.06;;;-3.47;89.95
74659;BME280;63186;51.204;6.536;2023-02-28T06:39:38;102590.88;;;-3.40;90.45
74659;BME280;63186;51.204;6.536;2023-02-28T06:42:04;102594.22;;;-3.30;89.06
74659;BME280;63186;51.204;6.536;2023-02-28T06:44:29;102589.03;;;-3.39;89.21
74659;BME280;63186;51.204;6.536;2023-02-28T06:47:01;102590.09;;;-3.48;89.64
74659;BME280;63186;51.204;6.536;2023-02-28T06:49:27;102590.56;;;-3.37;89.66
74659;BME280;63186;51.204;6.536;2023-02-28T06:51:53;102606.22;;;-3.32;88.91
74659;BME280;63186;51.204;6.536;2023-02-28T06:54:19;102604.81;;;-3.28;89.57
74659;BME280;63186;51.204;6.536;2023-02-28T06:56:44;102608.06;;;-3.02;88.45
74659;BME280;63186;51.204;6.536;2023-02-28T06:59:09;102614.00;;;-2.75;87.31
74659;BME280;63186;51.204;6.536;2023-02-28T07:01:34;102604.94;;;-2.51;86.54
74659;BME280;63186;51.204;6.536;2023-02-28T07:04:00;102612.25;;;-1.61;83.56
74659;BME280;63186;51.204;6.536;2023-02-28T07:06:26;102614.75;;;-1.01;79.35
74659;BME280;63186;51.204;6.536;2023-02-28T07:08:52;102611.16;;;-0.87;78.63
74659;BME280;63186;51.204;6.536;2023-02-28T07:11:20;102610.59;;;-0.82;78.26
74659;BME280;63186;51.204;6.536;2023-02-28T07:13:47;102616.84;;;-0.45;76.88
74659;BME280;63186;51.204;6.536;2023-02-28T07:16:13;102618.13;;;0.30;74.29
74659;BME280;63186;51.204;6.536;2023-02-28T07:18:39;102620.03;;;1.73;70.80
74659;BME280;63186;51.204;6.536;2023-02-28T07:21:06;102609.28;;;2.77;66.34
74659;BME280;63186;51.204;6.536;2023-02-28T07:23:32;102618.53;;;3.28;63.35
74659;BME280;63186;51.204;6.536;2023-02-28T07:25:58;102619.06;;;3.43;62.33
74659;BME280;63186;51.204;6.536;2023-02-28T07:28:23;102622.50;;;3.95;61.92
74659;BME280;63186;51.204;6.536;2023-02-28T07:30:49;102620.03;;;4.18;59.56
74659;BME280;63186;51.204;6.536;2023-02-28T07:33:14;102621.81;;;4.49;60.51
74659;BME280;63186;51.204;6.536;2023-02-28T07:35:40;102624.72;;;4.73;58.77
74659;BME280;63186;51.204;6.536;2023-02-28T07:38:05;102629.56;;;5.07;57.50
74659;BME280;63186;51.204;6.536;2023-02-28T07:40:33;102628.19;;;5.35;55.16
74659;BME280;63186;51.204;6.536;2023-02-28T07:42:59;102630.13;;;5.46;56.38
74659;BME280;63186;51.204;6.536;2023-02-28T07:45:25;102646.72;;;5.93;53.85
74659;BME280;63186;51.204;6.536;2023-02-28T07:47:51;102636.19;;;5.78;54.27
74659;BME280;63186;51.204;6.536;2023-02-28T07:50:16;102637.22;;;5.65;52.63
74659;BME280;63186;51.204;6.536;2023-02-28T07:52:42;102638.69;;;5.80;53.69
74659;BME280;63186;51.204;6.536;2023-02-28T07:55:08;102642.53;;;5.90;52.04
74659;BME280;63186;51.204;6.536;2023-02-28T07:57:34;102638.00;;;5.84;50.27
74659;BME280;63186;51.204;6.536;2023-02-28T07:59:59;102642.09;;;5.93;49.69
74659;BME280;63186;51.204;6.536;2023-02-28T08:02:25;102646.09;;;6.21;50.67
74659;BME280;63186;51.204;6.536;2023-02-28T08:04:50;102649.19;;;6.48;48.21
74659;BME280;63186;51.204;6.536;2023-02-28T08:07:16;102652.03;;;6.41;49.06
74659;BME280;63186;51.204;6.536;2023-02-28T08:09:43;102647.88;;;6.50;49.38
74659;BME280;63186;51.204;6.536;2023-02-28T08:12:09;102646.69;;;6.58;49.01
74659;BME280;63186;51.204;6.536;2023-02-28T08:14:35;102648.59;;;6.58;47.56
74659;BME280;63186;51.204;6.536;2023-02-28T08:17:01;102647.31;;;6.72;48.32
74659;BME280;63186;51.204;6.536;2023-02-28T08:19:26;102654.56;;;4.68;50.10
74659;BME280;63186;51.204;6.536;2023-02-28T08:21:52;102643.91;;;4.84;50.09
74659;BME280;63186;51.204;6.536;2023-02-28T08:24:17;102638.59;;;5.26;50.50
74659;BME280;63186;51.204;6.536;2023-02-28T08:26:42;102648.06;;;4.50;51.13
74659;BME280;63186;51.204;6.536;2023-02-28T08:29:08;102652.56;;;3.43;54.01
74659;BME280;63186;51.204;6.536;2023-02-28T08:31:33;102651.38;;;3.33;54.46
74659;BME280;63186;51.204;6.536;2023-02-28T08:34:04;102648.84;;;2.60;54.92
74659;BME280;63186;51.204;6.536;2023-02-28T08:36:29;102651.31;;;1.69;59.32
74659;BME280;63186;51.204;6.536;2023-02-28T08:38:54;102632.88;;;1.31;61.49
74659;BME280;63186;51.204;6.536;2023-02-28T08:41:21;102637.34;;;1.11;61.73
74659;BME280;63186;51.204;6.536;2023-02-28T08:43:46;102636.34;;;1.12;63.77
74659;BME280;63186;51.204;6.536;2023-02-28T08:46:12;102633.03;;;1.23;62.08
74659;BME280;63186;51.204;6.536;2023-02-28T08:48:39;102640.97;;;1.18;62.22
74659;BME280;63186;51.204;6.536;2023-02-28T08:51:15;102633.66;;;1.18;59.15
74659;BME280;63186;51.204;6.536;2023-02-28T08:53:44;102638.91;;;1.26;58.82
74659;BME280;63186;51.204;6.536;2023-02-28T08:56:11;102636.63;;;1.36;59.16
74659;BME280;63186;51.204;6.536;2023-02-28T08:58:37;102632.28;;;1.49;55.15
74659;BME280;63186;51.204;6.536;2023-02-28T09:01:17;102650.25;;;1.56;56.96
74659;BME280;63186;51.204;6.536;2023-02-28T09:03:44;102634.00;;;1.63;52.21
74659;BME280;63186;51.204;6.536;2023-02-28T09:06:11;102646.72;;;1.62;53.99
74659;BME280;63186;51.204;6.536;2023-02-28T09:08:37;102644.91;;;1.76;47.47
74659;BME280;63186;51.204;6.536;2023-02-28T09:11:03;102641.78;;;1.93;48.16
74659;BME280;63186;51.204;6.536;2023-02-28T09:13:29;102646.38;;;2.12;47.88
74659;BME280;63186;51.204;6.536;2023-02-28T09:15:57;102638.41;;;2.57;47.26
74659;BME280;63186;51.204;6.536;2023-02-28T09:18:22;102639.22;;;4.48;44.08
74659;BME280;63186;51.204;6.536;2023-02-28T09:20:48;102638.75;;;5.61;41.05
74659;BME280;63186;51.204;6.536;2023-02-28T09:23:13;102634.09;;;5.32;41.83
74659;BME280;63186;51.204;6.536;2023-02-28T09:25:46;102632.16;;;4.84;41.41
74659;BME280;63186;51.204;6.536;2023-02-28T09:28:12;102644.25;;;5.43;40.01
74659;BME280;63186;51.204;6.536;2023-02-28T09:30:37;102640.03;;;5.89;37.22
74659;BME280;63186;51.204;6.536;2023-02-28T09:33:02;102626.84;;;5.07;37.68
74659;BME280;63186;51.204;6.536;2023-02-28T09:35:28;102632.34;;;5.97;39.06
74659;BME280;63186;51.204;6.536;2023-02-28T09:37:53;102639.28;;;6.12;38.02
74659;BME280;63186;51.204;6.536;2023-02-28T09:40:20;102636.84;;;5.32;37.80
74659;BME280;63186;51.204;6.536;2023-02-28T09:42:47;102635.66;;;5.09;38.50
74659;BME280;63186;51.204;6.536;2023-02-28T09:45:37;102641.31;;;5.26;37.87
74659;BME280;63186;51.204;6.536;2023-02-28T09:48:12;102648.47;;;4.47;39.92
74659;BME280;63186;51.204;6.536;2023-02-28T09:53:26;102633.56;;;5.71;37.16
74659;BME280;63186;51.204;6.536;2023-02-28T09:55:55;102619.59;;;3.90;41.34
74659;BME280;63186;51.204;6.536;2023-02-28T09:58:30;102618.03;;;3.37;43.67
74659;BME280;63186;51.204;6.536;2023-02-28T10:01:03;102613.91;;;3.28;44.32
74659;BME280;63186;51.204;6.536;2023-02-28T10:03:43;102634.63;;;3.67;43.02
74659;BME280;63186;51.204;6.536;2023-02-28T10:06:16;102620.84;;;3.17;44.40
74659;BME280;63186;51.204;6.536;2023-02-28T10:08:51;102613.50;;;2.60;43.68
74659;BME280;63186;51.204;6.536;2023-02-28T10:11:20;102621.50;;;2.41;45.83
74659;BME280;63186;51.204;6.536;2023-02-28T10:13:55;102630.50;;;2.29;45.64
74659;BME280;63186;51.204;6.536;2023-02-28T10:16:34;102623.38;;;2.21;45.44
74659;BME280;63186;51.204;6.536;2023-02-28T10:21:43;102633.63;;;2.19;46.63
74659;BME280;63186;51.204;6.536;2023-02-28T10:26:59;102633.22;;;2.22;46.64
74659;BME280;63186;51.204;6.536;2023-02-28T10:29:27;102622.13;;;2.43;45.46
74659;BME280;63186;51.204;6.536;2023-02-28T10:31:53;102613.94;;;2.57;46.68
74659;BME280;63186;51.204;6.536;2023-02-28T10:34:18;102618.47;;;2.89;45.86
74659;BME280;63186;51.204;6.536;2023-02-28T10:36:44;102608.53;;;3.53;42.44
74659;BME280;63186;51.204;6.536;2023-02-28T10:39:35;102615.66;;;4.11;43.18
74659;BME280;63186;51.204;6.536;2023-02-28T10:42:02;102613.81;;;4.91;42.28
74659;BME280;63186;51.204;6.536;2023-02-28T10:44:29;102617.38;;;5.28;42.81
74659;BME280;63186;51.204;6.536;2023-02-28T10:46:55;102619.97;;;5.05;41.24
74659;BME280;63186;51.204;6.536;2023-02-28T10:49:24;102613.16;;;5.44;43.24
74659;BME280;63186;51.204;6.536;2023-02-28T10:51:57;102609.94;;;5.47;44.08
74659;BME280;63186;51.204;6.536;2023-02-28T10:54:31;102613.19;;;5.56;44.13
74659;BME280;63186;51.204;6.536;2023-02-28T10:57:12;102600.91;;;5.16;42.24
74659;BME280;63186;51.204;6.536;2023-02-28T10:59:39;102598.38;;;5.63;42.26
74659;BME280;63186;51.204;6.536;2023-02-28T11:02:35;102599.34;;;5.39;40.93
74659;BME280;63186;51.204;6.536;2023-02-28T11:05:01;102591.06;;;5.15;42.88
74659;BME280;63186;51.204;6.536;2023-02-28T11:07:27;102594.00;;;5.14;42.04
74659;BME280;63186;51.204;6.536;2023-02-28T11:09:55;102587.97;;;4.94;44.22
74659;BME280;63186;51.204;6.536;2023-02-28T11:12:38;102592.28;;;4.65;47.24
74659;BME280;63186;51.204;6.536;2023-02-28T11:15:33;102595.84;;;4.65;47.29
74659;BME280;63186;51.204;6.536;2023-02-28T11:18:22;102591.91;;;4.79;44.92
74659;BME280;63186;51.204;6.536;2023-02-28T11:20:50;102596.97;;;4.94;44.96
74659;BME280;63186;51.204;6.536;2023-02-28T11:23:16;102588.88;;;4.69;46.26
74659;BME280;63186;51.204;6.536;2023-02-28T11:25:55;102583.47;;;4.62;46.94
74659;BME280;63186;51.204;6.536;2023-02-28T11:28:35;102589.28;;;4.29;45.26
74659;BME280;63186;51.204;6.536;2023-02-28T11:36:22;102586.09;;;3.26;47.55
74659;BME280;63186;51.204;6.536;2023-02-28T11:38:53;102579.59;;;3.27;48.84
74659;BME280;63186;51.204;6.536;2023-02-28T11:41:33;102573.13;;;3.21;47.21
74659;BME280;63186;51.204;6.536;2023-02-28T11:47:13;102577.41;;;2.97;47.95
74659;BME280;63186;51.204;6.536;2023-02-28T11:52:47;102579.66;;;2.56;49.70
74659;BME280;63186;51.204;6.536;2023-02-28T12:01:06;102578.75;;;2.75;50.71
74659;BME280;63186;51.204;6.536;2023-02-28T12:03:43;102584.03;;;2.63;50.00
74659;BME280;63186;51.204;6.536;2023-02-28T12:11:31;102580.66;;;3.26;45.60
74659;BME280;63186;51.204;6.536;2023-02-28T12:19:19;102573.63;;;3.43;46.04
74659;BME280;63186;51.204;6.536;2023-02-28T12:24:49;102567.38;;;3.68;49.13
74659;BME280;63186;51.204;6.536;2023-02-28T12:27:17;102554.19;;;3.65;46.63
74659;BME280;63186;51.204;6.536;2023-02-28T12:30:05;102559.34;;;3.48;48.84
74659;BME280;63186;51.204;6.536;2023-02-28T12:32:36;102547.72;;;3.34;48.58
74659;BME280;63186;51.204;6.536;2023-02-28T12:40:11;102549.69;;;3.20;48.04
74659;BME280;63186;51.204;6.536;2023-02-28T12:42:50;102544.91;;;3.47;47.50
74659;BME280;63186;51.204;6.536;2023-02-28T12:47:44;102535.63;;;3.55;47.64
74659;BME280;63186;51.204;6.536;2023-02-28T12:50:11;102537.06;;;3.33;46.49
74659;BME280;63186;51.204;6.536;2023-02-28T12:55:44;102518.88;;;3.51;47.02
74659;BME280;63186;51.204;6.536;2023-02-28T12:58:27;102527.88;;;3.52;48.88
74659;BME280;63186;51.204;6.536;2023-02-28T13:01:14;102515.13;;;3.52;48.34
74659;BME280;63186;51.204;6.536;2023-02-28T13:09:05;102510.25;;;3.61;49.08
74659;BME280;63186;51.204;6.536;2023-02-28T13:11:41;102508.34;;;3.62;47.90
74659;BME280;63186;51.204;6.536;2023-02-28T13:14:37;102500.41;;;3.60;49.75
74659;BME280;63186;51.204;6.536;2023-02-28T13:20:04;102500.66;;;3.52;47.60
74659;BME280;63186;51.204;6.536;2023-02-28T13:24:59;102484.31;;;3.52;49.02
74659;BME280;63186;51.204;6.536;2023-02-28T13:27:34;102485.56;;;3.56;48.77
74659;BME280;63186;51.204;6.536;2023-02-28T13:30:00;102486.09;;;3.65;49.05
74659;BME280;63186;51.204;6.536;2023-02-28T13:42:23;102479.75;;;3.71;47.92
74659;BME280;63186;51.204;6.536;2023-02-28T14:01:03;102472.22;;;3.73;46.16
74659;BME280;63186;51.204;6.536;2023-02-28T14:06:25;102456.72;;;3.73;50.70
74659;BME280;63186;51.204;6.536;2023-02-28T14:09:02;102466.38;;;3.69;49.18
74659;BME280;63186;51.204;6.536;2023-02-28T14:11:35;102449.50;;;3.61;48.56
74659;BME280;63186;51.204;6.536;2023-02-28T14:14:02;102445.09;;;3.60;49.27
74659;BME280;63186;51.204;6.536;2023-02-28T14:16:37;102463.03;;;3.67;48.91
74659;BME280;63186;51.204;6.536;2023-02-28T14:19:24;102459.59;;;3.78;48.31
74659;BME280;63186;51.204;6.536;2023-02-28T14:33:00;102443.19;;;3.85;49.72
74659;BME280;63186;51.204;6.536;2023-02-28T14:38:33;102440.16;;;3.93;49.34
74659;BME280;63186;51.204;6.536;2023-02-28T14:41:01;102434.94;;;3.92;48.90
74659;BME280;63186;51.204;6.536;2023-02-28T14:43:28;102443.56;;;3.89;49.45
74659;BME280;63186;51.204;6.536;2023-02-28T14:46:02;102442.84;;;3.75;48.54
74659;BME280;63186;51.204;6.536;2023-02-28T14:48:29;102451.44;;;3.78;48.88
74659;BME280;63186;51.204;6.536;2023-02-28T14:50:59;102436.13;;;3.77;50.11
74659;BME280;63186;51.204;6.536;2023-02-28T14:53:30;102441.38;;;3.79;50.27
74659;BME280;63186;51.204;6.536;2023-02-28T14:56:00;102436.34;;;3.76;49.89
74659;BME280;63186;51.204;6.536;2023-02-28T14:58:33;102438.91;;;3.71;48.79
74659;BME280;63186;51.204;6.536;2023-02-28T15:01:03;102437.41;;;3.75;49.02
74659;BME280;63186;51.204;6.536;2023-02-28T15:03:32;102430.25;;;3.80;49.08
74659;BME280;63186;51.204;6.536;2023-02-28T15:06:15;102431.50;;;3.78;47.01
74659;BME280;63186;51.204;6.536;2023-02-28T15:08:42;102425.84;;;3.79;47.23
74659;BME280;63186;51.204;6.536;2023-02-28T15:11:15;102421.59;;;3.84;49.29
74659;BME280;63186;51.204;6.536;2023-02-28T15:13:44;102427.03;;;3.84;47.15